createdAt,value
2018-08-30T00:02:14.513Z,303.1
2018-08-30T00:12:29.902Z,302.8
2018-08-30T00:17:37.824Z,302.5
2018-08-30T00:22:45.769Z,302.2
2018-08-30T00:27:53.870Z,302
2018-08-30T00:33:01.553Z,301.9
2018-08-30T00:38:09.497Z,301.7
2018-08-30T00:43:17.415Z,301.5
2018-08-30T00:48:25.309Z,301.4
2018-08-30T00:53:33.651Z,301.2
2018-08-30T00:58:41.320Z,300.8
2018-08-30T01:03:49.371Z,300.7
2018-08-30T01:08:57.511Z,300.5
2018-08-30T01:14:05.341Z,300.5
2018-08-30T01:19:13.292Z,300.6
2018-08-30T01:24:21.271Z,300.7
2018-08-30T01:29:29.339Z,300.7
2018-08-30T01:39:45.415Z,301
2018-08-30T01:50:01.462Z,301.2
2018-08-30T01:55:09.518Z,301.2
2018-08-30T02:00:17.477Z,301.5
2018-08-30T02:05:25.503Z,301.6
2018-08-30T02:10:33.880Z,301.6
2018-08-30T02:20:49.578Z,301.5
2018-08-30T02:25:57.601Z,301.7
2018-08-30T02:31:05.635Z,301.9
2018-08-30T02:36:13.683Z,301.9
2018-08-30T02:41:21.728Z,301.9
2018-08-30T02:51:37.787Z,301.8
2018-08-30T02:56:45.856Z,301.9
2018-08-30T03:01:54.020Z,302.3
2018-08-30T03:07:02.098Z,302
2018-08-30T03:17:17.926Z,302.1
2018-08-30T03:22:25.925Z,302.2
2018-08-30T03:27:33.924Z,302.1
2018-08-30T03:42:57.899Z,302.5
2018-08-30T03:48:06.341Z,302.1
2018-08-30T03:53:14.088Z,302.3
2018-08-30T03:58:21.907Z,302.4
2018-08-30T04:03:29.907Z,302.2
2018-08-30T04:08:37.884Z,302.4
2018-08-30T04:13:45.865Z,302.5
2018-08-30T04:18:53.851Z,302.5
2018-08-30T04:24:01.790Z,302.5
2018-08-30T04:29:09.768Z,302.5
2018-08-30T04:34:18.688Z,302.7
2018-08-30T04:39:27.049Z,302.4
2018-08-30T04:44:36.390Z,302.2
2018-08-30T04:49:41.846Z,302.1
2018-08-30T04:54:49.478Z,302.3
2018-08-30T04:59:57.319Z,302.1
2018-08-30T05:05:05.235Z,302.4
2018-08-30T05:10:13.127Z,302.6
2018-08-30T05:15:21.232Z,302.5
2018-08-30T05:20:28.960Z,302.4
2018-08-30T05:25:36.879Z,302.5
2018-08-30T05:30:44.776Z,302.6
2018-08-30T05:35:52.710Z,302.4
2018-08-30T05:41:00.434Z,302.2
2018-08-30T05:46:08.254Z,302.2
2018-08-30T05:51:16.593Z,302.3
2018-08-30T05:56:24.100Z,302.3
2018-08-30T06:01:31.927Z,301.9
2018-08-30T06:16:55.478Z,301.9
2018-08-30T06:22:03.248Z,302.1
2018-08-30T06:27:11.065Z,302.2
2018-08-30T06:32:19.013Z,301.9
2018-08-30T06:42:34.578Z,301.7
2018-08-30T06:47:42.443Z,301.7
2018-08-30T06:52:50.360Z,302.1
2018-08-30T06:57:58.008Z,301.9
2018-08-30T07:03:05.797Z,301.6
2018-08-30T07:08:13.557Z,301.7
2018-08-30T07:13:21.264Z,301.3
2018-08-30T07:18:29.157Z,301.5
2018-08-30T07:28:44.687Z,301.5
2018-08-30T07:33:52.493Z,301.5
2018-08-30T07:39:00.390Z,301.5
2018-08-30T07:44:07.994Z,301.6
2018-08-30T07:49:15.744Z,301.5
2018-08-30T07:59:31.420Z,301.1
2018-08-30T08:04:38.916Z,301.1
2018-08-30T08:09:46.553Z,301.2
2018-08-30T08:14:54.155Z,301.3
2018-08-30T08:20:01.773Z,301.5
2018-08-30T08:25:09.226Z,301.3
2018-08-30T08:30:17.808Z,302.3
2018-08-30T08:35:24.201Z,301.2
2018-08-30T08:40:31.637Z,301
2018-08-30T08:45:39.104Z,301.1
2018-08-30T08:50:46.484Z,301.2
2018-08-30T08:55:53.841Z,300.9
2018-08-30T09:01:01.180Z,301.2
2018-08-30T09:06:08.466Z,301.2
2018-08-30T09:11:15.783Z,301.2
2018-08-30T09:16:22.976Z,300.9
2018-08-30T09:26:37.381Z,301.2
2018-08-30T09:31:44.539Z,301
2018-08-30T09:41:58.840Z,300.9
2018-08-30T09:47:05.992Z,300.9
2018-08-30T09:52:13.328Z,300.8
2018-08-30T09:57:20.343Z,301.1
2018-08-30T10:02:27.519Z,300.8
2018-08-30T10:07:34.682Z,300.9
2018-08-30T10:12:41.872Z,301.1
2018-08-30T10:17:49.081Z,300.9
2018-08-30T10:22:56.302Z,301
2018-08-30T10:28:03.484Z,301
2018-08-30T10:33:10.673Z,300.9
2018-08-30T10:38:19.804Z,300.8
2018-08-30T10:43:25.031Z,300.7
2018-08-30T10:48:32.087Z,300.9
2018-08-30T10:53:39.161Z,301
2018-08-30T10:58:46.236Z,300.8
2018-08-30T11:03:53.286Z,301
2018-08-30T11:09:00.407Z,301
2018-08-30T11:14:07.359Z,300.8
2018-08-30T11:24:21.318Z,300.7
2018-08-30T11:29:28.224Z,300.8
2018-08-30T11:34:35.120Z,300.7
2018-08-30T11:39:42.167Z,300.7
2018-08-30T11:49:55.924Z,300.6
2018-08-30T11:55:02.962Z,301
2018-08-30T12:00:10.005Z,300.7
2018-08-30T12:05:17.061Z,300.8
2018-08-30T12:10:23.939Z,300.6
2018-08-30T12:20:37.928Z,300.8
2018-08-30T12:30:52.085Z,300.7
2018-08-30T12:35:59.264Z,300.7
2018-08-30T12:41:06.117Z,300.6
2018-08-30T12:51:20.293Z,300.5
2018-08-30T12:56:27.313Z,300.8
2018-08-30T13:06:41.608Z,300.7
2018-08-30T13:11:48.709Z,300.7
2018-08-30T13:22:03.173Z,300.6
2018-08-30T13:27:10.353Z,300.6
2018-08-30T13:32:17.387Z,300.6
2018-08-30T13:37:24.713Z,300.6
2018-08-30T13:47:39.252Z,300.7
2018-08-30T13:52:46.644Z,300.8
2018-08-30T13:57:54.032Z,300.7
2018-08-30T14:03:01.281Z,301
2018-08-30T14:13:16.188Z,300.7
2018-08-30T14:18:23.541Z,300.9
2018-08-30T14:23:30.880Z,300.8
2018-08-30T14:28:38.335Z,300.6
2018-08-30T14:33:45.781Z,300.6
2018-08-30T14:38:53.155Z,300.6
2018-08-30T14:54:15.538Z,300.7
2018-08-30T14:59:22.842Z,300.7
2018-08-30T15:04:30.286Z,300.6
2018-08-30T15:14:45.095Z,300.6
2018-08-30T15:19:52.492Z,300.7
2018-08-30T15:24:59.933Z,300.6
2018-08-30T15:30:07.612Z,300.6
2018-08-30T15:35:14.785Z,300.5
2018-08-30T15:40:22.229Z,300.6
2018-08-30T15:45:29.717Z,300.6
2018-08-30T15:50:37.138Z,300.5
2018-08-30T15:55:44.576Z,301
2018-08-30T16:05:59.579Z,300.6
2018-08-30T16:16:14.552Z,300.6
2018-08-30T16:21:22.013Z,300.5
2018-08-30T16:31:37.012Z,300.7
2018-08-30T16:36:44.584Z,300.7
2018-08-30T16:41:51.961Z,300.5
2018-08-30T16:46:59.533Z,300.6
2018-08-30T16:52:06.937Z,300.7
2018-08-30T16:57:14.489Z,300.5
2018-08-30T17:02:21.823Z,300.5
2018-08-30T17:07:29.479Z,300.6
2018-08-30T17:12:36.879Z,300.8
2018-08-30T17:17:44.466Z,300.5
2018-08-30T17:22:51.827Z,300.8
2018-08-30T17:27:59.392Z,300.6
2018-08-30T17:33:06.796Z,300.9
2018-08-30T17:38:17.547Z,300.7
2018-08-30T17:43:21.794Z,300.6
2018-08-30T17:48:29.276Z,300.8
2018-08-30T17:53:36.996Z,300.8
2018-08-30T17:58:44.268Z,300.6
2018-08-30T18:03:51.861Z,300.7
2018-08-30T18:08:59.461Z,300.7
2018-08-30T18:14:06.905Z,301.3
2018-08-30T18:19:14.363Z,300.8
2018-08-30T18:24:21.993Z,301.5
2018-08-30T18:29:29.460Z,301
2018-08-30T18:34:37.053Z,300.8
2018-08-30T18:39:44.725Z,300.7
2018-08-30T18:44:52.614Z,300.6
2018-08-30T18:49:59.817Z,300.7
2018-08-30T18:55:07.871Z,300.9
2018-08-30T19:00:15.282Z,300.8
2018-08-30T19:05:22.749Z,300.5
2018-08-30T19:10:30.383Z,300.7
2018-08-30T19:15:37.950Z,300.6
2018-08-30T19:20:45.697Z,300.7
2018-08-30T19:25:53.414Z,300.8
2018-08-30T19:31:00.908Z,300.7
2018-08-30T19:36:08.547Z,300.8
2018-08-30T19:41:16.310Z,300.8
2018-08-30T19:46:23.914Z,300.8
2018-08-30T19:56:39.368Z,300.9
2018-08-30T20:01:47.044Z,300.6
2018-08-30T20:06:54.747Z,300.6
2018-08-30T20:12:02.498Z,300.8
2018-08-30T20:17:10.234Z,300.7
2018-08-30T20:22:17.994Z,300.7
2018-08-30T20:27:25.674Z,301
2018-08-30T20:32:33.365Z,300.7
2018-08-30T20:37:41.060Z,300.8
2018-08-30T20:42:48.815Z,300.8
2018-08-30T20:53:04.306Z,300.8
2018-08-30T20:58:12.027Z,300.7
2018-08-30T21:03:19.791Z,300.9
2018-08-30T21:08:27.570Z,300.9
2018-08-30T21:13:35.322Z,300.7
2018-08-30T21:18:43.101Z,300.7
2018-08-30T21:23:50.880Z,300.6
2018-08-30T21:28:58.659Z,300.7
2018-08-30T21:39:14.337Z,300.5
2018-08-30T21:44:22.019Z,300.8
2018-08-30T21:49:29.814Z,300.8
2018-08-30T21:54:37.674Z,300.6
2018-08-30T21:59:46.040Z,300.6
2018-08-30T22:04:53.282Z,301
2018-08-30T22:10:01.105Z,300.6
2018-08-30T22:15:09.050Z,300.9
2018-08-30T22:20:16.802Z,300.8
2018-08-30T22:25:24.615Z,300.7
2018-08-30T22:30:32.445Z,300.7
2018-08-30T22:35:40.388Z,300.5
2018-08-30T22:40:48.138Z,301.1
2018-08-30T22:45:55.970Z,300.8
2018-08-30T22:51:03.769Z,300.8
2018-08-30T22:56:11.823Z,300.5
2018-08-30T23:06:27.451Z,300.8
2018-08-30T23:11:35.194Z,300.6
2018-08-30T23:21:50.966Z,300.7
2018-08-30T23:26:58.857Z,300.7
2018-08-30T23:32:06.781Z,300.6
2018-08-30T23:37:14.669Z,300.6
2018-08-30T23:42:22.584Z,300.7
2018-08-30T23:47:30.618Z,300.6
2018-08-30T23:52:38.413Z,300.8
2018-08-30T23:57:46.419Z,300.6
